sensor_id;sensor_type;location;lat;lon;timestamp;P1;durP1;ratioP1;P2;durP2;ratioP2
26042;SDS011;13818;52.156;5.382;2024-02-21T00:02:20;10.32;;;1.58;;
26042;SDS011;13818;52.156;5.382;2024-02-21T00:04:45;9.15;;;2.05;;
26042;SDS011;13818;52.156;5.382;2024-02-21T00:07:12;3.75;;;1.70;;
26042;SDS011;13818;52.156;5.382;2024-02-21T00:09:38;3.08;;;1.27;;
26042;SDS011;13818;52.156;5.382;2024-02-21T00:12:05;6.20;;;1.92;;
26042;SDS011;13818;52.156;5.382;2024-02-21T00:14:33;3.28;;;1.35;;
26042;SDS011;13818;52.156;5.382;2024-02-21T00:17:00;6.25;;;1.42;;
26042;SDS011;13818;52.156;5.382;2024-02-21T00:19:26;6.13;;;1.67;;
26042;SDS011;13818;52.156;5.382;2024-02-21T00:21:53;11.32;;;1.60;;
26042;SDS011;13818;52.156;5.382;2024-02-21T00:24:19;3.97;;;1.58;;
26042;SDS011;13818;52.156;5.382;2024-02-21T00:26:46;7.97;;;1.60;;
26042;SDS011;13818;52.156;5.382;2024-02-21T00:29:12;3.97;;;1.67;;
26042;SDS011;13818;52.156;5.382;2024-02-21T00:31:40;9.65;;;1.70;;
26042;SDS011;13818;52.156;5.382;2024-02-21T00:34:07;3.22;;;1.30;;
26042;SDS011;13818;52.156;5.382;2024-02-21T00:36:33;6.50;;;1.38;;
26042;SDS011;13818;52.156;5.382;2024-02-21T00:39:00;5.22;;;1.65;;
26042;SDS011;13818;52.156;5.382;2024-02-21T00:41:26;4.63;;;1.50;;
26042;SDS011;13818;52.156;5.382;2024-02-21T00:43:53;4.10;;;1.10;;
26042;SDS011;13818;52.156;5.382;2024-02-21T00:46:19;6.65;;;2.33;;
26042;SDS011;13818;52.156;5.382;2024-02-21T00:48:47;4.53;;;1.35;;
26042;SDS011;13818;52.156;5.382;2024-02-21T00:51:15;4.15;;;1.73;;
26042;SDS011;13818;52.156;5.382;2024-02-21T00:53:41;4.80;;;1.15;;
26042;SDS011;13818;52.156;5.382;2024-02-21T00:56:08;1.95;;;1.38;;
26042;SDS011;13818;52.156;5.382;2024-02-21T01:01:44;2.15;;;1.25;;
26042;SDS011;13818;52.156;5.382;2024-02-21T01:04:11;5.00;;;1.45;;
26042;SDS011;13818;52.156;5.382;2024-02-21T01:09:49;9.07;;;1.02;;
26042;SDS011;13818;52.156;5.382;2024-02-21T01:12:16;2.47;;;1.77;;
26042;SDS011;13818;52.156;5.382;2024-02-21T01:14:50;5.80;;;1.67;;
26042;SDS011;13818;52.156;5.382;2024-02-21T01:38:00;2.25;;;1.88;;
26042;SDS011;13818;52.156;5.382;2024-02-21T01:40:27;5.13;;;1.77;;
26042;SDS011;13818;52.156;5.382;2024-02-21T01:42:54;5.40;;;1.90;;
26042;SDS011;13818;52.156;5.382;2024-02-21T01:45:21;3.67;;;2.00;;
26042;SDS011;13818;52.156;5.382;2024-02-21T01:47:48;1.90;;;1.40;;
26042;SDS011;13818;52.156;5.382;2024-02-21T01:50:16;8.73;;;2.45;;
26042;SDS011;13818;52.156;5.382;2024-02-21T02:09:42;3.28;;;1.63;;
26042;SDS011;13818;52.156;5.382;2024-02-21T02:12:09;3.17;;;1.75;;
26042;SDS011;13818;52.156;5.382;2024-02-21T02:14:35;5.95;;;1.67;;
26042;SDS011;13818;52.156;5.382;2024-02-21T02:17:01;7.57;;;1.92;;
26042;SDS011;13818;52.156;5.382;2024-02-21T02:19:28;6.38;;;1.70;;
26042;SDS011;13818;52.156;5.382;2024-02-21T02:21:56;3.97;;;1.92;;
26042;SDS011;13818;52.156;5.382;2024-02-21T02:48:32;4.00;;;1.92;;
26042;SDS011;13818;52.156;5.382;2024-02-21T02:50:58;3.95;;;2.00;;
26042;SDS011;13818;52.156;5.382;2024-02-21T02:53:25;7.25;;;1.88;;
26042;SDS011;13818;52.156;5.382;2024-02-21T02:58:51;6.35;;;2.47;;
26042;SDS011;13818;52.156;5.382;2024-02-21T03:01:17;7.07;;;2.35;;
26042;SDS011;13818;52.156;5.382;2024-02-21T03:07:04;5.68;;;2.10;;
26042;SDS011;13818;52.156;5.382;2024-02-21T03:09:52;6.03;;;3.38;;
26042;SDS011;13818;52.156;5.382;2024-02-21T03:12:19;7.70;;;2.08;;
26042;SDS011;13818;52.156;5.382;2024-02-21T03:14:53;7.45;;;2.42;;
26042;SDS011;13818;52.156;5.382;2024-02-21T03:17:21;4.15;;;2.58;;
26042;SDS011;13818;52.156;5.382;2024-02-21T03:19:48;4.47;;;1.98;;
26042;SDS011;13818;52.156;5.382;2024-02-21T03:22:15;5.53;;;1.88;;
26042;SDS011;13818;52.156;5.382;2024-02-21T03:24:41;2.92;;;2.08;;
26042;SDS011;13818;52.156;5.382;2024-02-21T03:27:08;8.60;;;2.72;;
26042;SDS011;13818;52.156;5.382;2024-02-21T03:29:35;7.03;;;2.22;;
26042;SDS011;13818;52.156;5.382;2024-02-21T03:32:03;3.55;;;2.33;;
26042;SDS011;13818;52.156;5.382;2024-02-21T03:34:29;6.80;;;2.47;;
26042;SDS011;13818;52.156;5.382;2024-02-21T03:36:56;7.13;;;3.08;;
26042;SDS011;13818;52.156;5.382;2024-02-21T03:39:22;8.32;;;3.00;;
26042;SDS011;13818;52.156;5.382;2024-02-21T03:41:49;8.35;;;2.38;;
26042;SDS011;13818;52.156;5.382;2024-02-21T03:44:16;5.75;;;2.45;;
26042;SDS011;13818;52.156;5.382;2024-02-21T03:46:43;8.15;;;2.95;;
26042;SDS011;13818;52.156;5.382;2024-02-21T03:52:29;4.78;;;2.17;;
26042;SDS011;13818;52.156;5.382;2024-02-21T03:58:58;5.88;;;2.63;;
26042;SDS011;13818;52.156;5.382;2024-02-21T04:01:44;7.57;;;2.38;;
26042;SDS011;13818;52.156;5.382;2024-02-21T04:04:35;3.75;;;1.88;;
26042;SDS011;13818;52.156;5.382;2024-02-21T04:07:24;3.60;;;1.98;;
26042;SDS011;13818;52.156;5.382;2024-02-21T04:27:29;2.67;;;1.90;;
26042;SDS011;13818;52.156;5.382;2024-02-21T04:37:39;6.50;;;2.08;;
26042;SDS011;13818;52.156;5.382;2024-02-21T04:40:08;4.78;;;2.40;;
26042;SDS011;13818;52.156;5.382;2024-02-21T04:42:47;4.95;;;2.13;;
26042;SDS011;13818;52.156;5.382;2024-02-21T04:45:41;7.80;;;2.47;;
26042;SDS011;13818;52.156;5.382;2024-02-21T04:48:10;5.63;;;2.13;;
26042;SDS011;13818;52.156;5.382;2024-02-21T04:50:55;4.70;;;2.10;;
26042;SDS011;13818;52.156;5.382;2024-02-21T04:53:21;4.40;;;1.95;;
26042;SDS011;13818;52.156;5.382;2024-02-21T04:55:48;6.72;;;2.08;;
26042;SDS011;13818;52.156;5.382;2024-02-21T04:58:14;4.63;;;2.20;;
26042;SDS011;13818;52.156;5.382;2024-02-21T05:00:41;4.22;;;2.22;;
26042;SDS011;13818;52.156;5.382;2024-02-21T05:03:07;5.43;;;2.35;;
26042;SDS011;13818;52.156;5.382;2024-02-21T05:05:34;4.22;;;2.03;;
26042;SDS011;13818;52.156;5.382;2024-02-21T05:08:02;3.83;;;1.90;;
26042;SDS011;13818;52.156;5.382;2024-02-21T05:10:30;6.90;;;1.83;;
26042;SDS011;13818;52.156;5.382;2024-02-21T05:12:57;6.88;;;1.95;;
26042;SDS011;13818;52.156;5.382;2024-02-21T05:15:24;7.60;;;2.15;;
26042;SDS011;13818;52.156;5.382;2024-02-21T05:17:50;6.15;;;2.85;;
26042;SDS011;13818;52.156;5.382;2024-02-21T05:20:17;4.78;;;2.50;;
26042;SDS011;13818;52.156;5.382;2024-02-21T05:22:43;4.75;;;2.92;;
26042;SDS011;13818;52.156;5.382;2024-02-21T05:25:11;12.55;;;4.15;;
26042;SDS011;13818;52.156;5.382;2024-02-21T05:27:38;12.90;;;3.13;;
26042;SDS011;13818;52.156;5.382;2024-02-21T05:30:05;10.75;;;3.08;;
26042;SDS011;13818;52.156;5.382;2024-02-21T05:32:32;2.95;;;1.88;;
26042;SDS011;13818;52.156;5.382;2024-02-21T05:34:59;3.30;;;2.45;;
26042;SDS011;13818;52.156;5.382;2024-02-21T05:37:25;4.63;;;2.38;;
26042;SDS011;13818;52.156;5.382;2024-02-21T05:39:52;6.38;;;2.95;;
26042;SDS011;13818;52.156;5.382;2024-02-21T05:42:19;8.68;;;3.53;;
26042;SDS011;13818;52.156;5.382;2024-02-21T05:44:46;5.28;;;2.47;;
26042;SDS011;13818;52.156;5.382;2024-02-21T05:47:12;8.02;;;2.72;;
26042;SDS011;13818;52.156;5.382;2024-02-21T05:49:40;7.25;;;2.97;;
26042;SDS011;13818;52.156;5.382;2024-02-21T05:52:06;4.18;;;2.85;;
26042;SDS011;13818;52.156;5.382;2024-02-21T05:54:33;4.90;;;2.13;;
26042;SDS011;13818;52.156;5.382;2024-02-21T05:57:00;4.90;;;2.22;;
26042;SDS011;13818;52.156;5.382;2024-02-21T05:59:27;4.65;;;2.67;;
26042;SDS011;13818;52.156;5.382;2024-02-21T06:01:56;8.40;;;3.15;;
26042;SDS011;13818;52.156;5.382;2024-02-21T06:04:23;6.10;;;2.25;;
26042;SDS011;13818;52.156;5.382;2024-02-21T06:06:49;4.63;;;2.63;;
26042;SDS011;13818;52.156;5.382;2024-02-21T06:09:17;7.70;;;2.90;;
26042;SDS011;13818;52.156;5.382;2024-02-21T06:11:43;8.55;;;2.80;;
26042;SDS011;13818;52.156;5.382;2024-02-21T06:14:11;6.88;;;2.90;;
26042;SDS011;13818;52.156;5.382;2024-02-21T06:16:39;12.00;;;3.05;;
26042;SDS011;13818;52.156;5.382;2024-02-21T06:19:05;3.22;;;2.25;;
26042;SDS011;13818;52.156;5.382;2024-02-21T06:21:32;5.63;;;2.63;;
26042;SDS011;13818;52.156;5.382;2024-02-21T06:23:58;8.40;;;3.05;;
26042;SDS011;13818;52.156;5.382;2024-02-21T06:26:25;8.15;;;2.88;;
26042;SDS011;13818;52.156;5.382;2024-02-21T06:28:51;6.68;;;2.85;;
26042;SDS011;13818;52.156;5.382;2024-02-21T06:31:18;16.67;;;3.70;;
26042;SDS011;13818;52.156;5.382;2024-02-21T06:33:46;12.88;;;3.75;;
26042;SDS011;13818;52.156;5.382;2024-02-21T06:36:12;5.72;;;3.08;;
26042;SDS011;13818;52.156;5.382;2024-02-21T06:38:38;5.95;;;2.92;;
26042;SDS011;13818;52.156;5.382;2024-02-21T06:41:05;7.50;;;2.90;;
26042;SDS011;13818;52.156;5.382;2024-02-21T06:43:32;7.20;;;3.13;;
26042;SDS011;13818;52.156;5.382;2024-02-21T06:45:58;13.63;;;3.92;;
26042;SDS011;13818;52.156;5.382;2024-02-21T06:48:25;11.60;;;4.10;;
26042;SDS011;13818;52.156;5.382;2024-02-21T06:50:53;11.60;;;3.55;;
26042;SDS011;13818;52.156;5.382;2024-02-21T06:53:19;9.63;;;4.75;;
26042;SDS011;13818;52.156;5.382;2024-02-21T06:55:45;6.10;;;4.20;;
26042;SDS011;13818;52.156;5.382;2024-02-21T06:58:12;6.78;;;3.25;;
26042;SDS011;13818;52.156;5.382;2024-02-21T07:00:40;13.23;;;5.00;;
26042;SDS011;13818;52.156;5.382;2024-02-21T07:03:09;13.38;;;6.18;;
26042;SDS011;13818;52.156;5.382;2024-02-21T07:05:36;11.60;;;4.95;;
26042;SDS011;13818;52.156;5.382;2024-02-21T07:08:03;11.68;;;4.60;;
26042;SDS011;13818;52.156;5.382;2024-02-21T07:10:30;11.25;;;5.88;;
26042;SDS011;13818;52.156;5.382;2024-02-21T07:12:57;10.65;;;4.68;;
26042;SDS011;13818;52.156;5.382;2024-02-21T07:15:22;6.65;;;3.95;;
26042;SDS011;13818;52.156;5.382;2024-02-21T07:17:51;11.60;;;4.78;;
26042;SDS011;13818;52.156;5.382;2024-02-21T07:20:18;9.95;;;5.53;;
26042;SDS011;13818;52.156;5.382;2024-02-21T07:22:44;12.38;;;5.75;;
26042;SDS011;13818;52.156;5.382;2024-02-21T07:25:12;12.57;;;5.35;;
26042;SDS011;13818;52.156;5.382;2024-02-21T07:27:39;13.10;;;3.63;;
26042;SDS011;13818;52.156;5.382;2024-02-21T07:30:07;12.15;;;4.97;;
26042;SDS011;13818;52.156;5.382;2024-02-21T07:32:34;14.50;;;5.95;;
26042;SDS011;13818;52.156;5.382;2024-02-21T07:35:00;13.73;;;4.93;;
26042;SDS011;13818;52.156;5.382;2024-02-21T07:37:27;6.25;;;4.18;;
26042;SDS011;13818;52.156;5.382;2024-02-21T07:39:53;11.25;;;4.82;;
26042;SDS011;13818;52.156;5.382;2024-02-21T07:42:21;9.77;;;4.60;;
26042;SDS011;13818;52.156;5.382;2024-02-21T07:44:48;12.93;;;4.85;;
26042;SDS011;13818;52.156;5.382;2024-02-21T07:47:15;12.77;;;4.22;;
26042;SDS011;13818;52.156;5.382;2024-02-21T07:49:43;9.25;;;4.65;;
26042;SDS011;13818;52.156;5.382;2024-02-21T07:52:10;12.57;;;4.47;;
26042;SDS011;13818;52.156;5.382;2024-02-21T07:54:37;8.70;;;4.65;;
26042;SDS011;13818;52.156;5.382;2024-02-21T07:57:03;7.63;;;4.43;;
26042;SDS011;13818;52.156;5.382;2024-02-21T07:59:32;19.02;;;4.72;;
26042;SDS011;13818;52.156;5.382;2024-02-21T08:01:58;10.77;;;4.07;;
26042;SDS011;13818;52.156;5.382;2024-02-21T08:04:25;5.25;;;3.58;;
26042;SDS011;13818;52.156;5.382;2024-02-21T08:06:52;8.38;;;4.25;;
26042;SDS011;13818;52.156;5.382;2024-02-21T08:09:20;6.75;;;3.70;;
26042;SDS011;13818;52.156;5.382;2024-02-21T08:11:47;13.50;;;4.20;;
26042;SDS011;13818;52.156;5.382;2024-02-21T08:14:13;6.85;;;2.38;;
26042;SDS011;13818;52.156;5.382;2024-02-21T08:16:42;8.25;;;3.58;;
26042;SDS011;13818;52.156;5.382;2024-02-21T08:19:09;15.90;;;4.43;;
26042;SDS011;13818;52.156;5.382;2024-02-21T08:21:36;7.45;;;3.67;;
26042;SDS011;13818;52.156;5.382;2024-02-21T08:24:03;9.93;;;3.70;;
26042;SDS011;13818;52.156;5.382;2024-02-21T08:26:30;6.72;;;3.47;;
26042;SDS011;13818;52.156;5.382;2024-02-21T08:28:56;7.88;;;4.25;;
26042;SDS011;13818;52.156;5.382;2024-02-21T08:31:24;8.98;;;4.70;;
26042;SDS011;13818;52.156;5.382;2024-02-21T08:33:57;7.97;;;3.55;;
26042;SDS011;13818;52.156;5.382;2024-02-21T08:36:27;7.88;;;3.72;;
26042;SDS011;13818;52.156;5.382;2024-02-21T08:38:54;9.68;;;4.00;;
26042;SDS011;13818;52.156;5.382;2024-02-21T08:41:20;11.75;;;4.15;;
26042;SDS011;13818;52.156;5.382;2024-02-21T08:43:48;8.63;;;3.28;;
26042;SDS011;13818;52.156;5.382;2024-02-21T08:46:14;8.43;;;4.30;;
26042;SDS011;13818;52.156;5.382;2024-02-21T08:48:41;7.72;;;4.40;;
26042;SDS011;13818;52.156;5.382;2024-02-21T08:51:09;9.30;;;4.10;;
26042;SDS011;13818;52.156;5.382;2024-02-21T08:53:36;13.13;;;4.32;;
26042;SDS011;13818;52.156;5.382;2024-02-21T08:56:04;6.43;;;4.40;;
26042;SDS011;13818;52.156;5.382;2024-02-21T08:58:32;10.43;;;4.32;;
26042;SDS011;13818;52.156;5.382;2024-02-21T09:00:58;9.00;;;3.58;;
26042;SDS011;13818;52.156;5.382;2024-02-21T09:03:25;10.07;;;4.28;;
26042;SDS011;13818;52.156;5.382;2024-02-21T09:05:51;11.20;;;3.83;;
26042;SDS011;13818;52.156;5.382;2024-02-21T09:08:20;5.68;;;2.70;;
26042;SDS011;13818;52.156;5.382;2024-02-21T09:10:47;8.52;;;3.72;;
26042;SDS011;13818;52.156;5.382;2024-02-21T09:13:13;12.45;;;3.58;;
26042;SDS011;13818;52.156;5.382;2024-02-21T09:15:40;4.82;;;3.38;;
26042;SDS011;13818;52.156;5.382;2024-02-21T09:18:06;7.75;;;4.55;;
26042;SDS011;13818;52.156;5.382;2024-02-21T09:20:33;12.57;;;4.18;;
26042;SDS011;13818;52.156;5.382;2024-02-21T09:22:59;8.10;;;3.40;;
26042;SDS011;13818;52.156;5.382;2024-02-21T09:25:27;5.57;;;3.05;;
26042;SDS011;13818;52.156;5.382;2024-02-21T09:27:54;4.28;;;2.78;;
26042;SDS011;13818;52.156;5.382;2024-02-21T09:30:20;5.70;;;3.40;;
26042;SDS011;13818;52.156;5.382;2024-02-21T09:32:47;6.40;;;2.80;;
26042;SDS011;13818;52.156;5.382;2024-02-21T09:35:14;8.10;;;3.38;;
26042;SDS011;13818;52.156;5.382;2024-02-21T09:37:40;8.20;;;2.65;;
26042;SDS011;13818;52.156;5.382;2024-02-21T09:40:07;6.63;;;2.28;;
26042;SDS011;13818;52.156;5.382;2024-02-21T09:42:38;5.05;;;2.63;;
26042;SDS011;13818;52.156;5.382;2024-02-21T09:45:07;9.98;;;3.25;;
26042;SDS011;13818;52.156;5.382;2024-02-21T09:47:40;6.10;;;3.22;;
26042;SDS011;13818;52.156;5.382;2024-02-21T09:50:16;4.07;;;2.25;;
26042;SDS011;13818;52.156;5.382;2024-02-21T09:52:43;8.98;;;3.55;;
26042;SDS011;13818;52.156;5.382;2024-02-21T09:55:11;9.52;;;3.08;;
26042;SDS011;13818;52.156;5.382;2024-02-21T10:00:07;7.63;;;2.88;;
26042;SDS011;13818;52.156;5.382;2024-02-21T10:02:34;4.85;;;3.17;;
26042;SDS011;13818;52.156;5.382;2024-02-21T10:05:01;4.07;;;2.67;;
26042;SDS011;13818;52.156;5.382;2024-02-21T10:07:29;7.47;;;3.83;;
26042;SDS011;13818;52.156;5.382;2024-02-21T10:10:00;7.65;;;2.88;;
26042;SDS011;13818;52.156;5.382;2024-02-21T10:12:28;4.20;;;1.98;;
26042;SDS011;13818;52.156;5.382;2024-02-21T10:15:01;4.78;;;2.50;;
26042;SDS011;13818;52.156;5.382;2024-02-21T10:17:28;6.00;;;2.75;;
26042;SDS011;13818;52.156;5.382;2024-02-21T10:19:54;3.97;;;2.13;;
26042;SDS011;13818;52.156;5.382;2024-02-21T10:22:20;7.35;;;2.83;;
26042;SDS011;13818;52.156;5.382;2024-02-21T10:24:48;5.82;;;2.38;;
26042;SDS011;13818;52.156;5.382;2024-02-21T10:27:14;7.68;;;1.83;;
26042;SDS011;13818;52.156;5.382;2024-02-21T10:29:41;6.03;;;1.80;;
26042;SDS011;13818;52.156;5.382;2024-02-21T10:32:09;5.15;;;3.00;;
26042;SDS011;13818;52.156;5.382;2024-02-21T10:34:37;12.05;;;2.30;;
26042;SDS011;13818;52.156;5.382;2024-02-21T10:37:08;4.95;;;2.17;;
26042;SDS011;13818;52.156;5.382;2024-02-21T10:39:36;5.28;;;2.50;;
26042;SDS011;13818;52.156;5.382;2024-02-21T10:42:03;5.65;;;2.55;;
26042;SDS011;13818;52.156;5.382;2024-02-21T10:44:31;7.28;;;2.63;;
26042;SDS011;13818;52.156;5.382;2024-02-21T10:46:58;4.22;;;2.38;;
26042;SDS011;13818;52.156;5.382;2024-02-21T10:49:27;2.58;;;1.73;;
26042;SDS011;13818;52.156;5.382;2024-02-21T10:51:59;3.20;;;1.83;;
26042;SDS011;13818;52.156;5.382;2024-02-21T10:54:38;7.03;;;2.05;;
26042;SDS011;13818;52.156;5.382;2024-02-21T10:57:10;3.85;;;1.90;;
26042;SDS011;13818;52.156;5.382;2024-02-21T10:59:38;2.83;;;1.83;;
26042;SDS011;13818;52.156;5.382;2024-02-21T11:02:06;3.53;;;1.88;;
26042;SDS011;13818;52.156;5.382;2024-02-21T11:04:34;2.05;;;1.40;;
26042;SDS011;13818;52.156;5.382;2024-02-21T11:07:02;3.00;;;1.48;;
26042;SDS011;13818;52.156;5.382;2024-02-21T11:09:30;2.33;;;1.27;;
26042;SDS011;13818;52.156;5.382;2024-02-21T11:11:58;6.10;;;2.67;;
26042;SDS011;13818;52.156;5.382;2024-02-21T11:14:26;5.65;;;2.05;;
26042;SDS011;13818;52.156;5.382;2024-02-21T11:16:53;3.25;;;1.70;;
26042;SDS011;13818;52.156;5.382;2024-02-21T11:19:21;2.72;;;1.83;;
26042;SDS011;13818;52.156;5.382;2024-02-21T11:21:50;3.97;;;2.15;;
26042;SDS011;13818;52.156;5.382;2024-02-21T11:26:52;3.53;;;2.13;;
26042;SDS011;13818;52.156;5.382;2024-02-21T11:29:22;4.07;;;2.22;;
26042;SDS011;13818;52.156;5.382;2024-02-21T11:31:50;4.68;;;2.47;;
26042;SDS011;13818;52.156;5.382;2024-02-21T11:34:18;5.38;;;2.30;;
26042;SDS011;13818;52.156;5.382;2024-02-21T11:36:49;3.53;;;2.17;;
26042;SDS011;13818;52.156;5.382;2024-02-21T11:39:20;5.03;;;2.53;;
26042;SDS011;13818;52.156;5.382;2024-02-21T11:41:58;5.95;;;2.50;;
26042;SDS011;13818;52.156;5.382;2024-02-21T11:44:29;5.03;;;2.60;;
26042;SDS011;13818;52.156;5.382;2024-02-21T11:46:55;4.25;;;2.95;;
26042;SDS011;13818;52.156;5.382;2024-02-21T11:49:24;4.43;;;2.70;;
26042;SDS011;13818;52.156;5.382;2024-02-21T11:51:58;2.83;;;1.25;;
26042;SDS011;13818;52.156;5.382;2024-02-21T11:54:26;5.35;;;2.85;;
26042;SDS011;13818;52.156;5.382;2024-02-21T11:56:52;4.05;;;2.80;;
26042;SDS011;13818;52.156;5.382;2024-02-21T11:59:19;3.65;;;1.88;;
26042;SDS011;13818;52.156;5.382;2024-02-21T12:01:46;7.70;;;2.53;;
26042;SDS011;13818;52.156;5.382;2024-02-21T12:04:12;3.63;;;2.35;;
26042;SDS011;13818;52.156;5.382;2024-02-21T12:06:39;9.18;;;2.70;;
26042;SDS011;13818;52.156;5.382;2024-02-21T12:09:08;3.70;;;1.98;;
26042;SDS011;13818;52.156;5.382;2024-02-21T12:11:35;3.80;;;1.73;;
26042;SDS011;13818;52.156;5.382;2024-02-21T12:14:01;3.83;;;2.30;;
26042;SDS011;13818;52.156;5.382;2024-02-21T12:16:30;6.18;;;2.50;;
26042;SDS011;13818;52.156;5.382;2024-02-21T12:18:57;3.55;;;1.95;;
26042;SDS011;13818;52.156;5.382;2024-02-21T12:21:24;7.97;;;3.47;;
26042;SDS011;13818;52.156;5.382;2024-02-21T12:23:50;3.97;;;2.60;;
26042;SDS011;13818;52.156;5.382;2024-02-21T12:26:18;2.85;;;1.48;;
26042;SDS011;13818;52.156;5.382;2024-02-21T12:28:44;5.63;;;2.03;;
26042;SDS011;13818;52.156;5.382;2024-02-21T12:31:11;7.40;;;2.53;;
26042;SDS011;13818;52.156;5.382;2024-02-21T12:33:37;3.45;;;1.95;;
26042;SDS011;13818;52.156;5.382;2024-02-21T12:36:04;4.43;;;2.63;;
26042;SDS011;13818;52.156;5.382;2024-02-21T12:38:31;3.00;;;1.67;;
26042;SDS011;13818;52.156;5.382;2024-02-21T12:40:57;5.03;;;1.45;;
26042;SDS011;13818;52.156;5.382;2024-02-21T12:43:26;3.72;;;2.40;;
26042;SDS011;13818;52.156;5.382;2024-02-21T12:48:20;5.50;;;2.30;;
26042;SDS011;13818;52.156;5.382;2024-02-21T12:50:48;5.32;;;2.83;;
26042;SDS011;13818;52.156;5.382;2024-02-21T12:53:15;4.10;;;2.78;;
26042;SDS011;13818;52.156;5.382;2024-02-21T12:55:43;5.00;;;2.45;;
26042;SDS011;13818;52.156;5.382;2024-02-21T12:58:10;2.45;;;1.60;;
26042;SDS011;13818;52.156;5.382;2024-02-21T13:00:40;3.25;;;2.15;;
26042;SDS011;13818;52.156;5.382;2024-02-21T13:03:07;14.00;;;2.40;;
26042;SDS011;13818;52.156;5.382;2024-02-21T13:05:34;3.05;;;1.73;;
26042;SDS011;13818;52.156;5.382;2024-02-21T13:08:01;2.97;;;1.95;;
26042;SDS011;13818;52.156;5.382;2024-02-21T13:10:29;6.47;;;1.98;;
26042;SDS011;13818;52.156;5.382;2024-02-21T13:12:55;5.00;;;1.90;;
26042;SDS011;13818;52.156;5.382;2024-02-21T13:15:22;4.65;;;1.95;;
26042;SDS011;13818;52.156;5.382;2024-02-21T13:17:50;3.25;;;1.80;;
26042;SDS011;13818;52.156;5.382;2024-02-21T13:20:16;2.42;;;1.55;;
26042;SDS011;13818;52.156;5.382;2024-02-21T13:22:43;2.83;;;2.00;;
26042;SDS011;13818;52.156;5.382;2024-02-21T13:25:09;4.35;;;1.98;;
26042;SDS011;13818;52.156;5.382;2024-02-21T13:27:40;6.43;;;2.25;;
26042;SDS011;13818;52.156;5.382;2024-02-21T13:30:07;4.10;;;2.05;;
26042;SDS011;13818;52.156;5.382;2024-02-21T13:35:02;3.33;;;1.63;;
26042;SDS011;13818;52.156;5.382;2024-02-21T13:39:56;4.13;;;1.45;;
26042;SDS011;13818;52.156;5.382;2024-02-21T13:42:22;4.40;;;1.52;;
26042;SDS011;13818;52.156;5.382;2024-02-21T13:44:52;3.00;;;1.60;;
26042;SDS011;13818;52.156;5.382;2024-02-21T13:47:19;1.58;;;1.10;;
26042;SDS011;13818;52.156;5.382;2024-02-21T13:49:46;2.17;;;1.50;;
26042;SDS011;13818;52.156;5.382;2024-02-21T13:52:14;2.80;;;1.33;;
26042;SDS011;13818;52.156;5.382;2024-02-21T13:54:42;1.45;;;1.15;;
26042;SDS011;13818;52.156;5.382;2024-02-21T13:57:08;3.33;;;2.17;;
26042;SDS011;13818;52.156;5.382;2024-02-21T13:59:35;3.80;;;1.35;;
26042;SDS011;13818;52.156;5.382;2024-02-21T14:02:01;2.53;;;1.48;;
26042;SDS011;13818;52.156;5.382;2024-02-21T14:04:28;8.23;;;2.13;;
26042;SDS011;13818;52.156;5.382;2024-02-21T14:06:55;3.83;;;2.00;;
26042;SDS011;13818;52.156;5.382;2024-02-21T14:09:23;5.35;;;1.67;;
26042;SDS011;13818;52.156;5.382;2024-02-21T14:11:49;3.03;;;1.48;;
26042;SDS011;13818;52.156;5.382;2024-02-21T14:14:16;5.00;;;1.40;;
26042;SDS011;13818;52.156;5.382;2024-02-21T14:16:42;2.05;;;1.45;;
26042;SDS011;13818;52.156;5.382;2024-02-21T14:19:09;5.82;;;1.63;;
26042;SDS011;13818;52.156;5.382;2024-02-21T14:21:36;4.25;;;1.35;;
26042;SDS011;13818;52.156;5.382;2024-02-21T14:24:03;3.33;;;1.13;;
26042;SDS011;13818;52.156;5.382;2024-02-21T14:26:31;10.60;;;1.95;;
26042;SDS011;13818;52.156;5.382;2024-02-21T14:28:58;3.25;;;1.10;;
26042;SDS011;13818;52.156;5.382;2024-02-21T14:31:25;5.35;;;2.17;;
26042;SDS011;13818;52.156;5.382;2024-02-21T14:33:51;6.47;;;1.85;;
26042;SDS011;13818;52.156;5.382;2024-02-21T14:36:18;6.53;;;1.40;;
26042;SDS011;13818;52.156;5.382;2024-02-21T14:38:44;5.20;;;1.52;;
26042;SDS011;13818;52.156;5.382;2024-02-21T14:41:12;4.20;;;1.58;;
26042;SDS011;13818;52.156;5.382;2024-02-21T14:43:40;3.03;;;1.30;;
26042;SDS011;13818;52.156;5.382;2024-02-21T14:46:08;3.03;;;1.42;;
26042;SDS011;13818;52.156;5.382;2024-02-21T14:48:37;3.67;;;1.75;;
26042;SDS011;13818;52.156;5.382;2024-02-21T14:51:04;5.53;;;2.38;;
26042;SDS011;13818;52.156;5.382;2024-02-21T14:53:30;4.85;;;1.42;;
26042;SDS011;13818;52.156;5.382;2024-02-21T14:55:57;4.82;;;1.33;;
26042;SDS011;13818;52.156;5.382;2024-02-21T14:58:23;3.03;;;1.38;;
26042;SDS011;13818;52.156;5.382;2024-02-21T15:00:51;3.97;;;1.77;;
26042;SDS011;13818;52.156;5.382;2024-02-21T15:03:21;3.90;;;1.55;;
26042;SDS011;13818;52.156;5.382;2024-02-21T15:08:14;8.65;;;1.67;;
26042;SDS011;13818;52.156;5.382;2024-02-21T15:10:42;4.05;;;1.58;;
26042;SDS011;13818;52.156;5.382;2024-02-21T15:13:08;4.60;;;1.90;;
26042;SDS011;13818;52.156;5.382;2024-02-21T15:15:35;2.22;;;1.23;;
26042;SDS011;13818;52.156;5.382;2024-02-21T15:18:03;3.30;;;1.63;;
26042;SDS011;13818;52.156;5.382;2024-02-21T15:20:30;2.83;;;2.08;;
26042;SDS011;13818;52.156;5.382;2024-02-21T15:22:56;2.13;;;1.27;;
26042;SDS011;13818;52.156;5.382;2024-02-21T15:25:23;3.25;;;1.58;;
26042;SDS011;13818;52.156;5.382;2024-02-21T15:27:50;2.90;;;1.95;;
26042;SDS011;13818;52.156;5.382;2024-02-21T15:30:17;2.75;;;1.45;;
26042;SDS011;13818;52.156;5.382;2024-02-21T15:32:43;4.47;;;1.75;;
26042;SDS011;13818;52.156;5.382;2024-02-21T15:35:11;3.92;;;2.35;;
26042;SDS011;13818;52.156;5.382;2024-02-21T15:37:38;2.92;;;1.42;;
26042;SDS011;13818;52.156;5.382;2024-02-21T15:40:05;1.95;;;1.08;;
26042;SDS011;13818;52.156;5.382;2024-02-21T15:42:33;4.07;;;2.08;;
26042;SDS011;13818;52.156;5.382;2024-02-21T15:44:59;6.18;;;1.40;;
26042;SDS011;13818;52.156;5.382;2024-02-21T15:47:29;2.00;;;1.27;;
26042;SDS011;13818;52.156;5.382;2024-02-21T15:49:56;2.47;;;1.63;;
26042;SDS011;13818;52.156;5.382;2024-02-21T15:52:25;3.50;;;2.35;;
26042;SDS011;13818;52.156;5.382;2024-02-21T15:54:52;3.20;;;1.42;;
26042;SDS011;13818;52.156;5.382;2024-02-21T15:57:18;2.88;;;2.05;;
26042;SDS011;13818;52.156;5.382;2024-02-21T15:59:45;5.60;;;1.55;;
26042;SDS011;13818;52.156;5.382;2024-02-21T16:02:14;3.05;;;2.13;;
26042;SDS011;13818;52.156;5.382;2024-02-21T16:04:41;2.42;;;1.63;;
26042;SDS011;13818;52.156;5.382;2024-02-21T16:07:07;4.13;;;2.58;;
26042;SDS011;13818;52.156;5.382;2024-02-21T16:09:35;5.30;;;2.28;;
26042;SDS011;13818;52.156;5.382;2024-02-21T16:12:02;2.47;;;1.65;;
26042;SDS011;13818;52.156;5.382;2024-02-21T16:14:30;3.47;;;1.40;;
26042;SDS011;13818;52.156;5.382;2024-02-21T16:16:56;7.20;;;1.85;;
26042;SDS011;13818;52.156;5.382;2024-02-21T16:19:23;3.80;;;1.75;;
26042;SDS011;13818;52.156;5.382;2024-02-21T16:21:50;3.08;;;1.95;;
26042;SDS011;13818;52.156;5.382;2024-02-21T16:24:16;3.65;;;2.25;;
26042;SDS011;13818;52.156;5.382;2024-02-21T16:26:44;3.13;;;1.35;;
26042;SDS011;13818;52.156;5.382;2024-02-21T16:29:11;2.97;;;1.65;;
26042;SDS011;13818;52.156;5.382;2024-02-21T16:31:38;4.03;;;2.10;;
26042;SDS011;13818;52.156;5.382;2024-02-21T16:34:05;2.00;;;1.38;;
26042;SDS011;13818;52.156;5.382;2024-02-21T16:36:32;3.40;;;1.33;;
26042;SDS011;13818;52.156;5.382;2024-02-21T16:38:59;2.20;;;1.50;;
26042;SDS011;13818;52.156;5.382;2024-02-21T16:41:28;4.18;;;1.92;;
26042;SDS011;13818;52.156;5.382;2024-02-21T16:43:56;5.50;;;1.80;;
26042;SDS011;13818;52.156;5.382;2024-02-21T16:46:22;3.70;;;1.60;;
26042;SDS011;13818;52.156;5.382;2024-02-21T16:48:49;2.80;;;1.80;;
26042;SDS011;13818;52.156;5.382;2024-02-21T16:51:15;3.22;;;1.85;;